createdAt,value
2022-10-26T00:01:59.900Z,14.63
2022-10-26T00:04:27.332Z,13.63
2022-10-26T00:06:54.667Z,13.55
2022-10-26T00:09:22.096Z,13.98
2022-10-26T00:11:49.443Z,13.27
2022-10-26T00:14:16.782Z,11.93
2022-10-26T00:16:44.199Z,12.30
2022-10-26T00:19:12.855Z,12.57
2022-10-26T00:21:40.188Z,13.60
2022-10-26T00:24:07.816Z,12.93
2022-10-26T00:26:35.178Z,14.00
2022-10-26T00:29:02.511Z,12.40
2022-10-26T00:31:29.854Z,12.18
2022-10-26T00:33:58.068Z,12.98
2022-10-26T00:36:27.234Z,11.95
2022-10-26T00:38:56.581Z,11.52
2022-10-26T00:41:25.560Z,10.75
2022-10-26T00:43:53.740Z,11.35
2022-10-26T00:46:23.423Z,11.90
2022-10-26T00:48:52.406Z,10.05
2022-10-26T00:51:25.402Z,11.07
2022-10-26T00:53:54.671Z,10.73
2022-10-26T00:56:22.095Z,10.82
2022-10-26T00:58:49.560Z,11.90
2022-10-26T01:01:17.025Z,11.05
2022-10-26T01:03:44.760Z,10.68
2022-10-26T01:06:12.981Z,11.77
2022-10-26T01:08:41.225Z,10.95
2022-10-26T01:11:10.358Z,10.07
2022-10-26T01:13:38.102Z,11.20
2022-10-26T01:16:22.028Z,8.57
2022-10-26T01:18:58.145Z,9.77
2022-10-26T01:21:45.245Z,9.60
2022-10-26T01:24:39.594Z,10.35
2022-10-26T01:29:55.597Z,9.77
2022-10-26T01:32:28.495Z,9.57
2022-10-26T01:35:00.875Z,9.40
2022-10-26T01:37:31.824Z,9.30
2022-10-26T01:40:02.916Z,9.65
2022-10-26T01:42:32.034Z,9.55
2022-10-26T01:45:02.496Z,10.02
2022-10-26T01:47:31.405Z,10.07
2022-10-26T01:49:59.565Z,9.00
2022-10-26T01:52:27.163Z,10.23
2022-10-26T01:55:01.615Z,9.95
2022-10-26T01:57:29.982Z,9.73
2022-10-26T02:00:06.406Z,11.57
2022-10-26T02:02:44.001Z,9.90
2022-10-26T02:05:24.273Z,11.00
2022-10-26T02:07:57.301Z,12.00
2022-10-26T02:10:32.093Z,7.97
2022-10-26T02:13:04.168Z,9.60
2022-10-26T02:15:35.994Z,11.00
2022-10-26T02:18:09.296Z,10.02
2022-10-26T02:20:41.360Z,9.43
2022-10-26T02:23:09.087Z,9.70
2022-10-26T02:25:39.721Z,9.25
2022-10-26T02:28:08.726Z,10.07
2022-10-26T02:30:36.882Z,10.23
2022-10-26T02:33:06.958Z,10.30
2022-10-26T02:35:36.566Z,10.15
2022-10-26T02:38:06.581Z,10.15
2022-10-26T02:40:35.462Z,9.63
2022-10-26T02:43:06.405Z,9.90
2022-10-26T02:45:36.101Z,9.35
2022-10-26T02:48:03.549Z,10.40
2022-10-26T02:50:34.374Z,10.02
2022-10-26T02:53:06.457Z,10.35
2022-10-26T02:55:40.306Z,9.90
2022-10-26T03:00:35.358Z,10.25
2022-10-26T03:03:03.619Z,10.38
2022-10-26T03:05:33.423Z,9.45
2022-10-26T03:08:01.748Z,10.30
2022-10-26T03:10:29.503Z,10.00
2022-10-26T03:12:56.844Z,10.73
2022-10-26T03:15:24.189Z,10.88
2022-10-26T03:17:51.939Z,10.70
2022-10-26T03:20:19.543Z,9.77
2022-10-26T03:22:49.256Z,9.57
2022-10-26T03:25:16.807Z,8.73
2022-10-26T03:27:44.485Z,9.38
2022-10-26T03:30:12.487Z,8.95
2022-10-26T03:32:39.844Z,9.48
2022-10-26T03:35:07.713Z,9.25
2022-10-26T03:37:35.045Z,9.05
2022-10-26T03:40:03.699Z,8.95
2022-10-26T03:42:34.535Z,8.88
2022-10-26T03:45:01.880Z,8.93
2022-10-26T03:47:29.222Z,8.55
2022-10-26T03:49:56.607Z,7.88
2022-10-26T03:52:24.631Z,8.05
2022-10-26T03:54:52.286Z,8.07
2022-10-26T03:57:20.954Z,8.73
2022-10-26T03:59:48.294Z,8.95
2022-10-26T04:02:15.670Z,9.60
2022-10-26T04:04:43.101Z,10.68
2022-10-26T04:07:10.513Z,10.27
2022-10-26T04:09:37.864Z,10.48
2022-10-26T04:12:05.865Z,9.63
2022-10-26T04:14:34.528Z,10.68
2022-10-26T04:17:01.908Z,10.43
2022-10-26T04:19:29.239Z,11.85
2022-10-26T04:21:56.585Z,11.77
2022-10-26T04:24:23.934Z,14.15
2022-10-26T04:26:51.277Z,14.65
2022-10-26T04:29:18.612Z,13.52
2022-10-26T04:31:47.278Z,11.85
2022-10-26T04:34:14.716Z,11.73
2022-10-26T04:36:42.082Z,11.20
2022-10-26T04:39:09.570Z,12.02
2022-10-26T04:41:36.918Z,10.32
2022-10-26T04:44:04.263Z,11.90
2022-10-26T04:46:31.600Z,10.80
2022-10-26T04:49:00.263Z,10.00
2022-10-26T04:51:27.702Z,10.38
2022-10-26T04:53:55.310Z,9.82
2022-10-26T04:56:23.150Z,10.10
2022-10-26T04:58:50.487Z,10.43
2022-10-26T05:01:17.881Z,11.63
2022-10-26T05:03:45.305Z,11.05
2022-10-26T05:06:13.958Z,11.07
2022-10-26T05:08:41.330Z,10.70
2022-10-26T05:11:08.693Z,11.00
2022-10-26T05:13:36.060Z,12.20
2022-10-26T05:16:03.485Z,12.15
2022-10-26T05:18:30.827Z,11.95
2022-10-26T05:20:58.165Z,11.15
2022-10-26T05:23:26.943Z,11.45
2022-10-26T05:25:55.937Z,12.27
2022-10-26T05:28:23.386Z,12.38
2022-10-26T05:30:50.821Z,12.82
2022-10-26T05:33:18.169Z,12.40
2022-10-26T05:35:45.520Z,12.73
2022-10-26T05:38:15.094Z,11.90
2022-10-26T05:40:49.548Z,12.00
2022-10-26T05:43:17.170Z,12.02
2022-10-26T05:45:44.668Z,11.00
2022-10-26T05:48:12.019Z,10.80
2022-10-26T05:50:39.485Z,11.00
2022-10-26T05:53:06.853Z,10.73
2022-10-26T05:55:34.958Z,10.50
2022-10-26T05:58:04.113Z,11.05
2022-10-26T06:00:32.210Z,10.73
2022-10-26T06:03:09.828Z,10.82
2022-10-26T06:05:39.870Z,10.35
2022-10-26T06:08:09.631Z,10.88
2022-10-26T06:10:37.586Z,11.32
2022-10-26T06:13:06.924Z,11.32
2022-10-26T06:15:39.322Z,10.43
2022-10-26T06:18:12.099Z,11.07
2022-10-26T06:20:45.701Z,10.75
2022-10-26T06:23:25.576Z,11.57
2022-10-26T06:25:58.982Z,12.13
2022-10-26T06:28:41.465Z,10.73
2022-10-26T06:31:08.938Z,10.38
2022-10-26T06:33:36.288Z,10.48
2022-10-26T06:36:14.365Z,10.07
2022-10-26T06:38:44.282Z,11.10
2022-10-26T06:41:14.601Z,10.25
2022-10-26T06:43:43.902Z,12.00
2022-10-26T06:46:17.760Z,10.82
2022-10-26T06:51:16.873Z,11.98
2022-10-26T06:53:49.497Z,11.30
2022-10-26T06:56:17.886Z,11.82
2022-10-26T06:58:47.178Z,11.52
2022-10-26T07:01:15.031Z,10.82
2022-10-26T07:03:42.418Z,10.10
2022-10-26T07:06:10.105Z,8.70
2022-10-26T07:08:38.107Z,9.55
2022-10-26T07:11:05.712Z,8.52
2022-10-26T07:13:33.049Z,8.93
2022-10-26T07:16:01.705Z,7.70
2022-10-26T07:18:29.051Z,7.38
2022-10-26T07:20:56.786Z,7.57
2022-10-26T07:23:24.692Z,7.55
2022-10-26T07:25:52.096Z,7.80
2022-10-26T07:28:19.436Z,7.50
2022-10-26T07:30:46.785Z,6.88
2022-10-26T07:33:15.704Z,7.13
2022-10-26T07:35:43.112Z,6.38
2022-10-26T07:38:10.544Z,7.00
2022-10-26T07:40:38.321Z,7.50
2022-10-26T07:43:06.080Z,7.30
2022-10-26T07:45:33.486Z,7.05
2022-10-26T07:48:00.925Z,7.10
2022-10-26T07:50:29.644Z,7.30
2022-10-26T07:52:57.029Z,6.55
2022-10-26T07:55:24.380Z,6.68
2022-10-26T07:57:54.800Z,6.65
2022-10-26T08:00:22.966Z,6.00
2022-10-26T08:02:50.373Z,6.22
2022-10-26T08:05:17.843Z,6.28
2022-10-26T08:07:46.706Z,5.80
2022-10-26T08:10:15.467Z,5.68
2022-10-26T08:12:43.734Z,6.40
2022-10-26T08:15:11.679Z,6.10
2022-10-26T08:17:39.017Z,6.10
2022-10-26T08:20:07.397Z,6.97
2022-10-26T08:22:34.747Z,7.10
2022-10-26T08:25:03.507Z,6.95
2022-10-26T08:27:30.799Z,7.47
2022-10-26T08:29:58.132Z,7.82
2022-10-26T08:32:25.510Z,7.68
2022-10-26T08:34:52.865Z,7.05
2022-10-26T08:37:20.223Z,7.40
2022-10-26T08:39:49.304Z,7.35
2022-10-26T08:42:24.767Z,7.50
2022-10-26T08:44:58.244Z,8.85
2022-10-26T08:47:28.441Z,7.25
2022-10-26T08:50:00.777Z,6.60
2022-10-26T08:52:32.883Z,6.25
2022-10-26T08:55:01.299Z,6.07
2022-10-26T08:57:35.180Z,5.50
2022-10-26T09:00:05.518Z,5.47
2022-10-26T09:02:33.011Z,4.93
2022-10-26T09:05:01.066Z,5.20
2022-10-26T09:07:38.839Z,4.47
2022-10-26T09:10:17.460Z,5.88
2022-10-26T09:12:49.765Z,4.85
2022-10-26T09:15:22.595Z,6.00
2022-10-26T09:17:55.489Z,6.28
2022-10-26T09:20:40.493Z,4.97
2022-10-26T09:23:13.925Z,5.22
2022-10-26T09:25:42.241Z,5.40
2022-10-26T09:28:19.385Z,5.57
2022-10-26T09:30:47.329Z,5.63
2022-10-26T09:33:17.219Z,5.05
2022-10-26T09:35:47.431Z,4.25
2022-10-26T09:38:17.759Z,3.70
2022-10-26T09:40:50.522Z,3.53
2022-10-26T09:43:21.807Z,3.73
2022-10-26T09:45:52.313Z,3.70
2022-10-26T09:48:23.705Z,3.78
2022-10-26T09:50:52.425Z,3.67
2022-10-26T09:53:19.775Z,3.50
2022-10-26T09:55:48.055Z,3.38
2022-10-26T09:58:17.678Z,3.20
2022-10-26T10:00:47.288Z,2.65
2022-10-26T10:03:20.437Z,3.55
2022-10-26T10:05:52.431Z,2.50
2022-10-26T10:08:22.558Z,2.65
2022-10-26T10:10:58.307Z,2.55
2022-10-26T10:13:26.911Z,2.50
2022-10-26T10:15:56.625Z,2.40
2022-10-26T10:18:24.939Z,2.60
2022-10-26T10:20:56.646Z,2.30
2022-10-26T10:23:32.085Z,2.10
2022-10-26T10:26:01.324Z,2.10
2022-10-26T10:28:29.084Z,2.30
2022-10-26T10:31:00.324Z,2.50
2022-10-26T10:33:39.750Z,2.30
2022-10-26T10:36:10.352Z,2.42
2022-10-26T10:38:39.077Z,1.95
2022-10-26T10:41:07.082Z,1.98
2022-10-26T10:43:34.457Z,2.15
2022-10-26T10:46:03.208Z,2.33
2022-10-26T10:48:31.765Z,2.03
2022-10-26T10:51:03.294Z,1.90
2022-10-26T10:53:35.512Z,1.70
2022-10-26T10:56:17.323Z,2.13
2022-10-26T10:58:51.371Z,2.00
2022-10-26T11:01:22.873Z,2.30
2022-10-26T11:04:07.477Z,2.00
2022-10-26T11:06:36.907Z,2.38
2022-10-26T11:09:06.799Z,2.03
2022-10-26T11:11:40.589Z,2.30
2022-10-26T11:14:14.681Z,2.17
2022-10-26T11:16:45.225Z,2.35
2022-10-26T11:19:19.021Z,2.13
2022-10-26T11:21:49.175Z,1.83
2022-10-26T11:24:21.296Z,1.98
2022-10-26T11:26:52.642Z,1.92
2022-10-26T11:29:28.026Z,1.90
2022-10-26T11:32:00.068Z,1.77
2022-10-26T11:34:32.881Z,1.63
2022-10-26T11:37:05.483Z,1.63
2022-10-26T11:39:37.848Z,1.70
2022-10-26T11:42:09.741Z,2.67
2022-10-26T11:44:40.486Z,1.80
2022-10-26T11:47:14.408Z,1.50
2022-10-26T11:49:45.059Z,2.80
2022-10-26T11:52:17.623Z,1.60
2022-10-26T11:54:48.630Z,1.52
2022-10-26T11:57:16.736Z,1.80
2022-10-26T11:59:48.159Z,1.40
2022-10-26T12:02:19.323Z,1.80
2022-10-26T12:04:50.537Z,1.60
2022-10-26T12:07:27.784Z,1.90
2022-10-26T12:09:55.833Z,1.83
2022-10-26T12:12:31.634Z,1.70
2022-10-26T12:15:08.655Z,1.40
2022-10-26T12:17:40.726Z,1.60
2022-10-26T12:20:16.942Z,1.60
2022-10-26T12:22:44.522Z,1.30
2022-10-26T12:25:21.098Z,1.75
2022-10-26T12:27:54.261Z,1.70
2022-10-26T12:30:28.851Z,1.60
2022-10-26T12:32:58.658Z,2.10
2022-10-26T12:35:32.060Z,1.83
2022-10-26T12:37:59.985Z,1.50
2022-10-26T12:40:44.008Z,1.50
2022-10-26T12:46:42.146Z,1.88
2022-10-26T12:49:55.016Z,1.90
2022-10-26T12:52:28.671Z,1.77
2022-10-26T12:55:39.395Z,2.25
2022-10-26T12:58:36.951Z,1.98
2022-10-26T13:01:27.529Z,1.85
2022-10-26T13:04:04.424Z,1.80
2022-10-26T13:06:41.319Z,2.13
2022-10-26T13:09:19.032Z,2.20
2022-10-26T13:11:49.060Z,2.20
2022-10-26T13:14:22.477Z,2.25
2022-10-26T13:16:50.123Z,2.22
2022-10-26T13:19:28.428Z,2.40
2022-10-26T13:21:59.012Z,1.98
2022-10-26T13:24:29.931Z,2.22
2022-10-26T13:27:34.544Z,1.98
2022-10-26T13:30:29.068Z,2.25
2022-10-26T13:32:57.426Z,2.00
2022-10-26T13:35:25.772Z,2.10
2022-10-26T13:37:55.089Z,2.22
2022-10-26T13:40:25.548Z,2.00
2022-10-26T13:42:55.083Z,2.10
2022-10-26T13:45:24.323Z,1.95
2022-10-26T13:47:57.338Z,2.17
2022-10-26T13:50:27.655Z,2.20
2022-10-26T13:53:00.449Z,1.90
2022-10-26T13:55:31.281Z,1.77
2022-10-26T13:58:07.204Z,2.03
2022-10-26T14:00:34.624Z,2.22
2022-10-26T14:03:13.481Z,2.25
2022-10-26T14:05:43.357Z,2.60
2022-10-26T14:08:17.409Z,3.30
2022-10-26T14:10:48.496Z,2.35
2022-10-26T14:13:17.731Z,2.20
2022-10-26T14:15:46.355Z,2.20
2022-10-26T14:18:17.712Z,2.40
2022-10-26T14:20:48.906Z,1.98
2022-10-26T14:23:30.166Z,2.50
2022-10-26T14:25:59.430Z,2.20
2022-10-26T14:28:28.718Z,2.53
2022-10-26T14:30:57.158Z,2.70
2022-10-26T14:33:29.422Z,2.47
2022-10-26T14:35:57.036Z,2.80
2022-10-26T14:38:27.366Z,2.35
2022-10-26T14:40:56.295Z,2.50
2022-10-26T14:43:25.788Z,2.50
2022-10-26T14:45:54.289Z,2.83
2022-10-26T14:48:26.574Z,2.97
2022-10-26T14:51:01.071Z,2.40
2022-10-26T14:53:35.689Z,2.30
2022-10-26T14:56:04.757Z,2.63
2022-10-26T14:58:35.191Z,2.50
2022-10-26T15:01:30.336Z,2.42
2022-10-26T15:04:01.504Z,2.58
2022-10-26T15:06:34.800Z,2.53
2022-10-26T15:09:04.629Z,2.83
2022-10-26T15:11:33.625Z,3.10
2022-10-26T15:14:03.432Z,3.95
2022-10-26T15:16:33.578Z,2.95
2022-10-26T15:19:07.396Z,3.08
2022-10-26T15:24:03.277Z,3.15
2022-10-26T15:26:30.925Z,3.50
2022-10-26T15:28:59.295Z,3.00
2022-10-26T15:31:33.185Z,3.17
2022-10-26T15:34:16.186Z,3.83
2022-10-26T15:36:44.266Z,3.20
2022-10-26T15:39:11.621Z,3.10
2022-10-26T15:41:43.762Z,4.53
2022-10-26T15:44:15.958Z,4.35
2022-10-26T15:46:45.838Z,4.47
2022-10-26T15:49:16.492Z,4.05
2022-10-26T15:51:46.129Z,4.60
2022-10-26T15:54:13.545Z,4.10
2022-10-26T15:56:43.537Z,4.45
2022-10-26T15:59:18.365Z,4.43
2022-10-26T16:01:47.280Z,4.10
2022-10-26T16:04:14.771Z,4.90
2022-10-26T16:06:43.054Z,4.53
2022-10-26T16:09:14.228Z,4.63
2022-10-26T16:11:41.565Z,4.00
2022-10-26T16:14:09.931Z,4.47
2022-10-26T16:16:37.862Z,4.55
2022-10-26T16:19:29.099Z,4.75
2022-10-26T16:21:53.896Z,5.10
2022-10-26T16:24:22.355Z,6.00
2022-10-26T16:26:49.725Z,108.90
2022-10-26T16:29:17.126Z,95.43
2022-10-26T16:31:44.461Z,52.95
2022-10-26T16:34:13.144Z,39.72
2022-10-26T16:36:40.483Z,26.25
2022-10-26T16:39:07.863Z,17.95
2022-10-26T16:41:35.540Z,11.60
2022-10-26T16:44:02.888Z,8.85
2022-10-26T16:46:30.255Z,7.57
2022-10-26T16:48:57.810Z,7.07
2022-10-26T16:51:28.397Z,8.80
2022-10-26T16:53:57.170Z,6.95
2022-10-26T16:56:26.446Z,6.00
2022-10-26T16:58:53.826Z,5.65
2022-10-26T17:01:22.257Z,5.55
2022-10-26T17:03:51.229Z,5.38
2022-10-26T17:06:19.213Z,5.85
2022-10-26T17:08:48.017Z,10.18
2022-10-26T17:11:16.792Z,17.92
2022-10-26T17:13:45.364Z,21.15
2022-10-26T17:16:14.214Z,42.47
2022-10-26T17:18:41.982Z,24.25
2022-10-26T17:21:09.627Z,11.55
2022-10-26T17:23:37.253Z,11.93
2022-10-26T17:26:07.193Z,13.77
2022-10-26T17:28:34.693Z,11.60
2022-10-26T17:31:06.640Z,13.20
2022-10-26T17:33:34.663Z,11.13
2022-10-26T17:36:02.109Z,9.32
2022-10-26T17:38:31.644Z,8.82
2022-10-26T17:41:01.134Z,15.00
2022-10-26T17:43:32.164Z,7.97
2022-10-26T17:46:00.338Z,8.07
2022-10-26T17:48:28.261Z,8.20
2022-10-26T17:50:55.617Z,8.48
2022-10-26T17:53:22.965Z,7.43
2022-10-26T17:55:50.313Z,6.70
2022-10-26T17:58:17.654Z,6.32
2022-10-26T18:00:49.278Z,7.38
2022-10-26T18:03:17.452Z,10.88
2022-10-26T18:05:49.699Z,9.27
2022-10-26T18:08:17.036Z,8.23
2022-10-26T18:10:47.626Z,6.95
2022-10-26T18:13:14.955Z,5.95
2022-10-26T18:15:42.496Z,7.43
2022-10-26T18:18:11.183Z,7.50
2022-10-26T18:20:38.702Z,8.02
2022-10-26T18:23:06.321Z,6.00
2022-10-26T18:25:33.805Z,6.03
2022-10-26T18:28:01.377Z,6.30
2022-10-26T18:30:28.918Z,5.93
2022-10-26T18:32:56.296Z,10.63
2022-10-26T18:35:25.043Z,14.52
2022-10-26T18:37:53.034Z,7.28
2022-10-26T18:40:21.015Z,7.28
2022-10-26T18:42:48.363Z,6.30
2022-10-26T18:45:15.743Z,5.15
2022-10-26T18:47:43.082Z,5.05
2022-10-26T18:50:10.814Z,4.18
2022-10-26T18:52:39.532Z,4.53
2022-10-26T18:55:08.009Z,5.28
2022-10-26T18:57:35.375Z,4.47
2022-10-26T19:00:02.742Z,5.30
2022-10-26T19:02:30.116Z,5.25
2022-10-26T19:04:58.783Z,5.30
2022-10-26T19:07:26.333Z,4.97
2022-10-26T19:09:55.288Z,5.18
2022-10-26T19:12:22.655Z,5.15
2022-10-26T19:14:51.435Z,5.03
2022-10-26T19:17:18.799Z,5.85
2022-10-26T19:19:46.154Z,5.45
2022-10-26T19:22:13.516Z,5.82
2022-10-26T19:24:40.872Z,6.28
2022-10-26T19:27:09.552Z,6.43
2022-10-26T19:29:37.019Z,5.38
2022-10-26T19:32:04.613Z,5.25
2022-10-26T19:34:31.984Z,5.70
2022-10-26T19:36:59.366Z,5.50
2022-10-26T19:39:27.669Z,5.50
2022-10-26T19:41:55.028Z,5.90
2022-10-26T19:44:25.507Z,5.97
2022-10-26T19:46:53.101Z,5.85
2022-10-26T19:49:20.454Z,6.22
2022-10-26T19:51:48.206Z,5.75
2022-10-26T19:54:15.700Z,6.13
2022-10-26T19:56:43.049Z,5.78
2022-10-26T19:59:11.426Z,6.30
2022-10-26T20:01:40.214Z,6.10
2022-10-26T20:04:07.595Z,6.10
2022-10-26T20:06:34.950Z,6.50
2022-10-26T20:09:02.676Z,6.15
2022-10-26T20:11:31.985Z,6.30
2022-10-26T20:13:59.349Z,6.57
2022-10-26T20:16:26.785Z,6.68
2022-10-26T20:18:55.434Z,6.95
2022-10-26T20:21:22.779Z,5.88
2022-10-26T20:23:50.126Z,6.30
2022-10-26T20:26:19.786Z,6.22
2022-10-26T20:28:48.835Z,6.30
2022-10-26T20:31:16.192Z,6.25
2022-10-26T20:33:43.752Z,5.75
2022-10-26T20:36:12.406Z,6.70
2022-10-26T20:38:40.368Z,6.30
2022-10-26T20:41:11.664Z,6.47
2022-10-26T20:43:40.234Z,6.10
2022-10-26T20:46:08.292Z,6.75
2022-10-26T20:48:39.261Z,7.30
2022-10-26T20:51:08.805Z,7.38
2022-10-26T20:53:41.006Z,7.10
2022-10-26T20:56:16.492Z,7.50
2022-10-26T20:58:46.151Z,8.38
2022-10-26T21:01:23.717Z,9.30
2022-10-26T21:03:51.592Z,8.55
2022-10-26T21:06:18.924Z,8.27
2022-10-26T21:08:49.050Z,8.10
2022-10-26T21:11:16.547Z,8.35
2022-10-26T21:13:44.388Z,8.80
2022-10-26T21:16:11.808Z,8.00
2022-10-26T21:18:39.297Z,8.98
2022-10-26T21:21:07.288Z,8.70
2022-10-26T21:23:36.291Z,8.20
2022-10-26T21:26:05.480Z,8.20
2022-10-26T21:28:34.989Z,8.80
2022-10-26T21:31:03.553Z,8.82
2022-10-26T21:33:32.045Z,8.75
2022-10-26T21:35:59.457Z,8.85
2022-10-26T21:38:27.632Z,7.50
2022-10-26T21:41:02.825Z,9.20
2022-10-26T21:43:32.566Z,8.25
2022-10-26T21:46:03.553Z,9.30
2022-10-26T21:48:32.118Z,9.38
2022-10-26T21:50:59.536Z,9.50
2022-10-26T21:53:27.333Z,8.77
2022-10-26T21:56:00.395Z,8.88
2022-10-26T21:58:27.839Z,8.77
2022-10-26T22:00:56.656Z,9.27
2022-10-26T22:03:24.089Z,9.07
2022-10-26T22:05:54.347Z,9.68
2022-10-26T22:08:22.047Z,8.73
2022-10-26T22:10:49.395Z,8.00
2022-10-26T22:13:16.780Z,7.88
2022-10-26T22:15:44.340Z,7.93
2022-10-26T22:18:13.021Z,8.25
2022-10-26T22:20:40.365Z,8.35
2022-10-26T22:23:08.877Z,8.82
2022-10-26T22:25:36.222Z,8.68
2022-10-26T22:28:03.578Z,8.63
2022-10-26T22:30:30.943Z,8.98
2022-10-26T22:32:58.284Z,8.80
2022-10-26T22:35:30.241Z,9.00
2022-10-26T22:37:57.658Z,8.57
2022-10-26T22:40:25.017Z,8.43
2022-10-26T22:42:52.688Z,8.93
2022-10-26T22:45:20.401Z,8.73
2022-10-26T22:47:47.743Z,7.90
2022-10-26T22:50:15.238Z,8.32
2022-10-26T22:52:43.904Z,7.90
2022-10-26T22:55:11.288Z,7.80
2022-10-26T22:57:38.626Z,8.20
2022-10-26T23:00:07.471Z,8.43
2022-10-26T23:02:34.830Z,7.40
2022-10-26T23:05:02.170Z,8.30
2022-10-26T23:07:30.062Z,8.23
2022-10-26T23:09:58.708Z,8.45
2022-10-26T23:12:26.067Z,8.48
2022-10-26T23:14:53.409Z,8.27
2022-10-26T23:17:20.763Z,7.85
2022-10-26T23:19:48.102Z,9.68
2022-10-26T23:22:15.436Z,9.00
2022-10-26T23:24:42.794Z,8.85
2022-10-26T23:27:11.449Z,9.18
2022-10-26T23:29:38.823Z,9.18
2022-10-26T23:32:06.389Z,9.63
2022-10-26T23:34:33.715Z,10.65
2022-10-26T23:37:01.053Z,9.63
2022-10-26T23:39:28.391Z,9.98
2022-10-26T23:41:55.735Z,9.30
2022-10-26T23:44:24.387Z,9.50
2022-10-26T23:46:51.748Z,9.90
2022-10-26T23:49:19.144Z,9.40
2022-10-26T23:51:46.494Z,8.82
2022-10-26T23:54:13.834Z,9.70
2022-10-26T23:56:41.153Z,9.65
2022-10-26T23:59:08.780Z,10.15
